Airfield :
LOGIN :

Register | Disclaimer

   EN    FR    IT 

 










Legend :    VFR   Marginal VFR   IFR   Intensive IFR   Very Intensive IFR
Visi :
Ceiling :
>= 8 km
>= 3000ft
5 to 8 km
1000 to 3000 ft
1500m to 5 km
500 to 1000 ft
800 to 1500m
200 to 500 ft
< 800m
< 200 ft
Symbols :   Thunderstorms  Fog  Heavy snow  Heavy precipitations  Wind > 20 kt
SIGMETs :     Misc.  Thunderstorms  Icing  Turbulence  Mountain Waves  Volcanic Ashes






- Airport Elevation : 512 ft
- IATA code : URO


LFOP - Rouen Vallée de Seine

CURRENT METAR :
  • 231030Z AUTO 24019KT 9999 OVC012 12/11 Q1022 TEMPO 2000 RADZ OVC003 BECMG 23017G27KT

EXPIRED METARs :
  • 231000Z AUTO 25019KT 9999 -RA OVC015 12/10 Q1022 TEMPO 2000 RADZ OVC003 BECMG 23017G27KT
  • 230930Z AUTO 23019KT 9999 OVC017 12/10 Q1021 TEMPO 2000 RADZ OVC003 BECMG 23017G27KT
  • 230900Z AUTO 23020KT 9999 BKN016 OVC024 12/10 Q1021 TEMPO 2000 RADZ OVC003 BECMG 23017G27KT
  • 230830Z AUTO 22022KT 9999 OVC015 12/10 Q1021 TEMPO 2000 RADZ OVC003 BECMG 23017G27KT
  • 230800Z AUTO 22022G33KT 9999 OVC013 11/10 Q1021 TEMPO 2000 RADZ OVC003

TAF TAF LFOP
Valid from the 23 at 06:00 until the 24 at 06:00 UTC


230500Z 2306/2406 23017G27KT 9999 SCT005 OVC010
TEMPO 2306/2406 2000 RADZ OVC003
BECMG 2315/2318 30015KT
BECMG 2319/2322 27005KT
BECMG 2403/2405 21010KT
ATIS : +33 2 35 80 80 34
Met : +33 2 32 86 52 80



MET'MAP, your aeronautical weather chart ! - Copyright ORBIFLY December 2007 - Disclaimer

ORBIFLY MET'MAP TEAM :

Programming & Development : Alexandra Zaïnal
Concept & original design : Baudouin d'Aumeries
Assistance for programming : Marc-Olivier Méhu
Technical & hardware support : Manuel Goepfert

Contact : metmap@orbifly.com




SOURCES & CREDITS :

   NOAA